Wetterdaten: Woche 09.03.15 - 15.03.15 (KW11)
Datum Zeit Temp. A. Feuchte A. Luftdruck Regen Wind Richtung Taupunkt Windchill Windben
09.03.2015 00:00 0,9 C 64 % 1028,2 hPa 0,0 l/m 0,0 km/h N -5,2 C 0,9 C 0,4 km/h
09.03.2015 01:00 -1,0 C 70 % 1028,0 hPa 0,0 l/m 0,0 km/h N -5,8 C -1,0 C 0,4 km/h
09.03.2015 02:00 -2,1 C 76 % 1027,5 hPa 0,0 l/m 0,0 km/h N -5,7 C -2,1 C 0,4 km/h
09.03.2015 03:00 -2,5 C 79 % 1027,2 hPa 0,0 l/m 0,0 km/h N -5,6 C -2,5 C 0,0 km/h
09.03.2015 04:00 -2,5 C 82 % 1027,0 hPa 0,0 l/m 0,4 km/h N -5,3 C -2,5 C 3,2 km/h
09.03.2015 05:00 -2,5 C 82 % 1027,3 hPa 0,0 l/m 0,0 km/h N -5,2 C -2,5 C 0,8 km/h
09.03.2015 06:00 -2,9 C 83 % 1027,6 hPa 0,0 l/m 0,0 km/h N -5,4 C -2,9 C 0,4 km/h
09.03.2015 07:00 -1,8 C 85 % 1027,9 hPa 0,0 l/m 0,2 km/h N -4,1 C -1,8 C 1,2 km/h
09.03.2015 08:00 2,1 C 78 % 1027,8 hPa 0,0 l/m 0,5 km/h N -1,3 C 2,1 C 3,6 km/h
09.03.2015 09:00 7,9 C 56 % 1027,7 hPa 0,0 l/m 2,4 km/h N -0,3 C 7,9 C 9,3 km/h
09.03.2015 10:00 11,2 C 41 % 1027,2 hPa 0,0 l/m 6,7 km/h N -1,6 C 10,5 C 21,3 km/h
09.03.2015 11:00 12,9 C 35 % 1026,8 hPa 0,0 l/m 8,4 km/h N -2,4 C 11,7 C 23,3 km/h
09.03.2015 12:00 13,2 C 35 % 1026,5 hPa 0,0 l/m 8,2 km/h N -1,8 C 12,1 C 21,3 km/h
09.03.2015 13:00 12,5 C 40 % 1026,6 hPa 0,0 l/m 5,9 km/h N -0,9 C 12,4 C 17,7 km/h
09.03.2015 14:00 12,3 C 40 % 1026,3 hPa 0,0 l/m 5,0 km/h N -0,8 C 12,3 C 17,7 km/h
09.03.2015 15:00 12,1 C 41 % 1026,3 hPa 0,0 l/m 3,4 km/h N -0,7 C 12,1 C 15,7 km/h
09.03.2015 16:00 11,2 C 43 % 1026,6 hPa 0,0 l/m 3,5 km/h N -1,0 C 11,2 C 14,9 km/h
09.03.2015 17:00 9,5 C 47 % 1027,0 hPa 0,0 l/m 1,5 km/h N -1,4 C 9,5 C 10,1 km/h
09.03.2015 18:00 7,7 C 52 % 1027,7 hPa 0,0 l/m 0,1 km/h N -1,7 C 7,7 C 1,2 km/h
09.03.2015 19:00 5,5 C 57 % 1027,9 hPa 0,0 l/m 0,0 km/h N -2,4 C 5,5 C 0,0 km/h
09.03.2015 20:00 2,9 C 65 % 1027,9 hPa 0,0 l/m 0,0 km/h N -3,0 C 2,9 C 0,0 km/h
09.03.2015 21:00 1,5 C 72 % 1027,7 hPa 0,0 l/m 0,0 km/h N -3,0 C 1,5 C 0,0 km/h
09.03.2015 22:00 0,6 C 77 % 1027,3 hPa 0,0 l/m 0,1 km/h N -3,0 C 0,6 C 0,8 km/h
09.03.2015 23:00 -0,0 C 79 % 1027,2 hPa 0,0 l/m 0,0 km/h N -3,2 C -0,0 C 0,0 km/h
10.03.2015 00:00 -0,6 C 81 % 1027,1 hPa 0,0 l/m 0,0 km/h N -3,5 C -0,6 C 0,0 km/h
10.03.2015 01:00 -1,1 C 82 % 1027,1 hPa 0,0 l/m 0,0 km/h N -3,8 C -1,1 C 0,0 km/h
10.03.2015 02:00 -1,4 C 84 % 1026,9 hPa 0,0 l/m 0,0 km/h N -3,8 C -1,4 C 0,0 km/h
10.03.2015 03:00 -1,5 C 84 % 1026,8 hPa 0,0 l/m 0,1 km/h N -3,9 C -1,5 C 0,8 km/h
10.03.2015 04:00 -1,9 C 84 % 1026,6 hPa 0,0 l/m 0,0 km/h N -4,2 C -1,9 C 0,0 km/h
10.03.2015 05:00 -2,2 C 85 % 1026,5 hPa 0,0 l/m 0,0 km/h N -4,3 C -2,2 C 0,0 km/h
10.03.2015 06:00 -2,5 C 85 % 1026,7 hPa 0,0 l/m 0,0 km/h N -4,6 C -2,5 C 0,0 km/h
10.03.2015 07:00 -1,8 C 87 % 1027,1 hPa 0,0 l/m 0,1 km/h N -3,7 C -1,8 C 1,2 km/h
10.03.2015 08:00 1,8 C 84 % 1027,0 hPa 0,0 l/m 0,2 km/h N -0,6 C 1,8 C 2,4 km/h
10.03.2015 09:00 6,2 C 70 % 1026,7 hPa 0,0 l/m 3,1 km/h N 1,1 C 6,2 C 8,4 km/h
10.03.2015 10:00 8,5 C 60 % 1026,2 hPa 0,0 l/m 2,0 km/h N 1,1 C 8,5 C 8,9 km/h
10.03.2015 11:00 9,7 C 57 % 1025,8 hPa 0,0 l/m 1,7 km/h N 1,5 C 9,7 C 7,6 km/h
10.03.2015 12:00 10,7 C 54 % 1025,2 hPa 0,0 l/m 1,1 km/h N 1,9 C 10,7 C 7,2 km/h
10.03.2015 13:00 12,1 C 50 % 1024,1 hPa 0,0 l/m 1,7 km/h N 2,0 C 12,1 C 8,9 km/h
10.03.2015 14:00 13,9 C 43 % 1023,3 hPa 0,0 l/m 8,1 km/h N 1,3 C 12,7 C 19,3 km/h
10.03.2015 15:00 13,9 C 41 % 1022,8 hPa 0,0 l/m 8,7 km/h N 0,9 C 12,6 C 20,9 km/h
10.03.2015 16:00 13,8 C 41 % 1022,5 hPa 0,0 l/m 7,1 km/h N 0,6 C 13,1 C 18,9 km/h
10.03.2015 17:00 12,9 C 43 % 1022,6 hPa 0,0 l/m 3,3 km/h N 0,6 C 12,9 C 10,4 km/h
10.03.2015 18:00 10,0 C 49 % 1023,0 hPa 0,0 l/m 0,0 km/h N -0,3 C 10,0 C 1,2 km/h
10.03.2015 19:00 6,8 C 58 % 1023,3 hPa 0,0 l/m 0,0 km/h N -1,0 C 6,8 C 0,4 km/h
10.03.2015 20:00 4,8 C 66 % 1022,9 hPa 0,0 l/m 0,0 km/h N -0,9 C 4,8 C 0,4 km/h
10.03.2015 21:00 4,7 C 70 % 1022,7 hPa 0,0 l/m 1,2 km/h N -0,4 C 4,7 C 4,8 km/h
10.03.2015 22:00 9,0 C 57 % 1022,2 hPa 0,0 l/m 2,9 km/h N 1,0 C 9,0 C 8,9 km/h
10.03.2015 23:00 8,6 C 57 % 1021,7 hPa 0,0 l/m 2,3 km/h N 0,5 C 8,6 C 10,9 km/h
11.03.2015 00:00 8,7 C 56 % 1021,3 hPa 0,0 l/m 4,4 km/h N 0,4 C 8,7 C 13,7 km/h
11.03.2015 01:00 8,2 C 59 % 1021,1 hPa 0,0 l/m 3,5 km/h N 0,5 C 8,2 C 10,5 km/h
11.03.2015 02:00 8,0 C 59 % 1020,7 hPa 0,0 l/m 5,3 km/h N 0,5 C 7,9 C 15,7 km/h
11.03.2015 03:00 8,3 C 60 % 1020,3 hPa 0,0 l/m 7,3 km/h N 0,9 C 7,6 C 18,5 km/h
11.03.2015 04:00 7,9 C 63 % 1020,3 hPa 0,0 l/m 5,5 km/h N 1,3 C 7,9 C 17,3 km/h
11.03.2015 05:00 7,9 C 66 % 1020,5 hPa 0,0 l/m 6,2 km/h N 1,9 C 7,7 C 17,7 km/h
11.03.2015 06:00 8,2 C 68 % 1020,7 hPa 0,0 l/m 8,6 km/h N 2,7 C 6,6 C 22,1 km/h
11.03.2015 07:00 8,0 C 70 % 1021,1 hPa 0,0 l/m 6,6 km/h N 2,9 C 7,6 C 18,9 km/h
11.03.2015 08:00 7,5 C 77 % 1021,2 hPa 0,3 l/m 8,6 km/h N 3,6 C 5,8 C 19,3 km/h
11.03.2015 09:00 6,5 C 83 % 1021,2 hPa 0,8 l/m 11,5 km/h N 3,7 C 2,8 C 24,5 km/h
11.03.2015 10:00 5,9 C 84 % 1021,3 hPa 0,8 l/m 9,6 km/h N 3,5 C 3,4 C 21,3 km/h
11.03.2015 11:00 5,2 C 85 % 1022,0 hPa 1,3 l/m 9,9 km/h N 2,8 C 2,3 C 25,3 km/h
11.03.2015 12:00 4,3 C 85 % 1022,7 hPa 1,3 l/m 10,2 km/h N 2,0 C 1,2 C 21,7 km/h
11.03.2015 13:00 4,4 C 85 % 1022,7 hPa 0,8 l/m 10,4 km/h N 2,1 C 1,2 C 25,7 km/h
11.03.2015 14:00 4,4 C 85 % 1022,8 hPa 0,5 l/m 11,2 km/h N 2,1 C 0,7 C 26,5 km/h
11.03.2015 15:00 4,2 C 84 % 1023,0 hPa 0,0 l/m 12,9 km/h N 1,7 C -0,7 C 28,6 km/h
11.03.2015 16:00 4,6 C 80 % 1023,2 hPa 0,0 l/m 13,2 km/h N 1,5 C -0,4 C 29,4 km/h
11.03.2015 17:00 4,4 C 77 % 1023,5 hPa 0,0 l/m 11,0 km/h N 0,7 C 0,8 C 25,3 km/h
11.03.2015 18:00 4,5 C 73 % 1024,0 hPa 0,0 l/m 10,8 km/h N 0,1 C 1,0 C 23,3 km/h
11.03.2015 19:00 4,7 C 70 % 1024,5 hPa 0,0 l/m 10,8 km/h N -0,4 C 1,2 C 24,9 km/h
11.03.2015 20:00 4,5 C 66 % 1025,0 hPa 0,0 l/m 10,4 km/h N -1,2 C 1,3 C 24,5 km/h
11.03.2015 21:00 4,2 C 69 % 1025,3 hPa 0,0 l/m 13,2 km/h N -1,0 C -0,9 C 33,0 km/h
11.03.2015 22:00 4,1 C 68 % 1025,7 hPa 0,0 l/m 11,0 km/h N -1,2 C 0,4 C 24,9 km/h
11.03.2015 23:00 3,9 C 70 % 1025,9 hPa 0,3 l/m 11,7 km/h N -1,1 C -0,3 C 27,4 km/h
12.03.2015 00:00 3,9 C 71 % 1026,0 hPa 0,0 l/m 12,9 km/h N -0,9 C -1,1 C 27,4 km/h
12.03.2015 01:00 3,8 C 72 % 1026,1 hPa 0,0 l/m 12,6 km/h N -0,8 C -1,0 C 26,9 km/h
12.03.2015 02:00 3,8 C 73 % 1026,1 hPa 0,0 l/m 11,6 km/h N -0,7 C -0,4 C 25,7 km/h
12.03.2015 03:00 3,6 C 73 % 1026,3 hPa 0,0 l/m 11,5 km/h N -0,8 C -0,6 C 27,4 km/h
12.03.2015 04:00 3,5 C 73 % 1026,6 hPa 0,0 l/m 12,1 km/h N -1,0 C -1,0 C 26,2 km/h
12.03.2015 05:00 3,3 C 73 % 1026,7 hPa 0,0 l/m 9,9 km/h N -1,2 C 0,2 C 23,7 km/h
12.03.2015 06:00 3,1 C 73 % 1026,8 hPa 0,0 l/m 9,4 km/h N -1,3 C 0,5 C 22,5 km/h
12.03.2015 07:00 3,0 C 71 % 1027,2 hPa 0,0 l/m 9,1 km/h N -1,8 C 0,6 C 20,5 km/h
12.03.2015 08:00 3,8 C 67 % 1027,3 hPa 0,0 l/m 10,1 km/h N -1,8 C 0,7 C 23,7 km/h
12.03.2015 09:00 4,9 C 64 % 1027,3 hPa 0,0 l/m 14,3 km/h N -1,4 C -0,5 C 31,0 km/h
12.03.2015 10:00 5,3 C 62 % 1027,0 hPa 0,0 l/m 14,7 km/h N -1,4 C -0,3 C 29,0 km/h
12.03.2015 11:00 5,2 C 64 % 1026,7 hPa 0,0 l/m 11,6 km/h N -1,1 C 1,3 C 25,3 km/h
12.03.2015 12:00 5,4 C 63 % 1026,4 hPa 0,0 l/m 13,4 km/h N -1,1 C 0,4 C 28,2 km/h
12.03.2015 13:00 5,8 C 60 % 1025,8 hPa 0,0 l/m 14,5 km/h N -1,3 C 0,3 C 29,8 km/h
12.03.2015 14:00 6,1 C 61 % 1025,2 hPa 0,0 l/m 14,0 km/h N -0,9 C 0,9 C 29,4 km/h
12.03.2015 15:00 6,5 C 59 % 1024,8 hPa 0,0 l/m 14,9 km/h N -0,9 C 1,0 C 29,8 km/h
12.03.2015 16:00 6,5 C 56 % 1024,7 hPa 0,0 l/m 15,9 km/h N -1,6 C 0,5 C 36,2 km/h
12.03.2015 17:00 6,2 C 56 % 1025,1 hPa 0,0 l/m 13,8 km/h N -2,0 C 1,1 C 31,0 km/h
12.03.2015 18:00 5,9 C 58 % 1025,3 hPa 0,0 l/m 13,2 km/h N -1,7 C 1,1 C 28,6 km/h
12.03.2015 19:00 5,7 C 60 % 1025,3 hPa 0,0 l/m 12,5 km/h N -1,5 C 1,2 C 26,5 km/h
12.03.2015 20:00 5,5 C 61 % 1025,3 hPa 0,0 l/m 13,2 km/h N -1,4 C 0,7 C 26,9 km/h
12.03.2015 21:00 5,2 C 65 % 1025,4 hPa 0,0 l/m 11,4 km/h N -0,8 C 1,4 C 28,2 km/h
12.03.2015 22:00 4,8 C 67 % 1025,1 hPa 0,0 l/m 9,3 km/h N -0,7 C 2,4 C 22,5 km/h
12.03.2015 23:00 4,7 C 68 % 1024,5 hPa 0,0 l/m 8,8 km/h N -0,7 C 2,6 C 22,9 km/h
13.03.2015 00:00 4,6 C 69 % 1024,0 hPa 0,0 l/m 8,7 km/h N -0,7 C 2,7 C 22,9 km/h
13.03.2015 01:00 4,4 C 69 % 1023,7 hPa 0,0 l/m 8,7 km/h N -0,8 C 2,4 C 21,7 km/h
13.03.2015 02:00 4,3 C 69 % 1023,2 hPa 0,0 l/m 8,9 km/h N -0,8 C 2,2 C 19,7 km/h
13.03.2015 03:00 4,1 C 70 % 1022,8 hPa 0,0 l/m 9,6 km/h N -0,8 C 1,3 C 22,5 km/h
13.03.2015 04:00 3,9 C 71 % 1022,6 hPa 0,0 l/m 8,9 km/h N -0,8 C 1,7 C 20,5 km/h
13.03.2015 05:00 3,9 C 71 % 1022,2 hPa 0,0 l/m 8,3 km/h N -0,9 C 2,2 C 21,3 km/h
13.03.2015 06:00 3,8 C 73 % 1022,0 hPa 0,0 l/m 7,8 km/h N -0,7 C 2,5 C 20,1 km/h
13.03.2015 07:00 3,8 C 73 % 1022,0 hPa 0,0 l/m 7,8 km/h N -0,6 C 2,6 C 18,1 km/h
13.03.2015 08:00 4,1 C 73 % 1022,0 hPa 0,0 l/m 8,1 km/h N -0,3 C 2,5 C 19,7 km/h
13.03.2015 09:00 3,9 C 75 % 1022,0 hPa 0,0 l/m 8,2 km/h N -0,0 C 2,3 C 21,3 km/h
13.03.2015 10:00 4,0 C 77 % 1021,9 hPa 0,0 l/m 8,0 km/h N 0,3 C 2,6 C 21,3 km/h
13.03.2015 11:00 4,2 C 78 % 1021,9 hPa 0,0 l/m 9,1 km/h N 0,7 C 1,9 C 20,5 km/h
13.03.2015 12:00 4,3 C 78 % 1021,6 hPa 0,0 l/m 8,0 km/h N 0,8 C 2,9 C 20,1 km/h
13.03.2015 13:00 4,4 C 79 % 1021,3 hPa 0,0 l/m 7,5 km/h N 1,0 C 3,3 C 20,1 km/h
13.03.2015 14:00 4,2 C 82 % 1021,1 hPa 0,0 l/m 6,8 km/h N 1,3 C 3,8 C 17,3 km/h
13.03.2015 15:00 4,3 C 81 % 1021,1 hPa 0,0 l/m 6,0 km/h N 1,2 C 4,1 C 16,1 km/h
13.03.2015 16:00 4,6 C 79 % 1021,3 hPa 0,0 l/m 6,4 km/h N 1,2 C 4,0 C 17,7 km/h
13.03.2015 17:00 4,6 C 79 % 1021,5 hPa 0,0 l/m 7,1 km/h N 1,2 C 4,0 C 18,1 km/h
13.03.2015 18:00 4,5 C 79 % 1021,9 hPa 0,0 l/m 7,3 km/h N 1,2 C 3,7 C 17,7 km/h
13.03.2015 19:00 4,4 C 80 % 1022,1 hPa 0,0 l/m 7,8 km/h N 1,3 C 3,2 C 18,5 km/h
13.03.2015 20:00 4,3 C 81 % 1022,1 hPa 0,0 l/m 6,0 km/h N 1,3 C 4,0 C 15,3 km/h
13.03.2015 21:00 4,4 C 80 % 1022,2 hPa 0,0 l/m 4,2 km/h N 1,2 C 4,4 C 13,3 km/h
13.03.2015 22:00 4,2 C 80 % 1021,9 hPa 0,0 l/m 3,9 km/h N 1,1 C 4,2 C 11,7 km/h
13.03.2015 23:00 4,2 C 80 % 1021,6 hPa 0,0 l/m 4,1 km/h N 1,0 C 4,2 C 11,7 km/h
14.03.2015 00:00 4,0 C 79 % 1021,6 hPa 0,0 l/m 5,8 km/h N 0,8 C 4,0 C 15,7 km/h
14.03.2015 01:00 3,8 C 80 % 1021,7 hPa 0,0 l/m 4,9 km/h N 0,7 C 3,7 C 13,3 km/h
14.03.2015 02:00 3,6 C 81 % 1021,4 hPa 0,0 l/m 3,8 km/h N 0,7 C 3,6 C 12,1 km/h
14.03.2015 03:00 3,6 C 80 % 1021,3 hPa 0,0 l/m 3,4 km/h N 0,5 C 3,6 C 9,7 km/h
14.03.2015 04:00 3,6 C 81 % 1021,5 hPa 0,0 l/m 3,0 km/h N 0,6 C 3,6 C 8,9 km/h
14.03.2015 05:00 3,5 C 81 % 1021,8 hPa 0,0 l/m 3,9 km/h N 0,5 C 3,5 C 12,1 km/h
14.03.2015 06:00 3,4 C 81 % 1022,1 hPa 0,0 l/m 4,1 km/h N 0,5 C 3,4 C 11,7 km/h
14.03.2015 07:00 3,3 C 81 % 1022,3 hPa 0,0 l/m 5,5 km/h N 0,4 C 3,3 C 7,2 km/h
14.03.2015 08:00 3,3 C 83 % 1022,7 hPa 0,0 l/m 2,2 km/h N 0,7 C 3,3 C 7,6 km/h
14.03.2015 09:00 3,8 C 82 % 1022,6 hPa 0,0 l/m 4,3 km/h N 1,0 C 3,8 C 10,5 km/h
14.03.2015 10:00 4,2 C 79 % 1022,8 hPa 0,0 l/m 4,6 km/h N 0,9 C 4,2 C 10,5 km/h
14.03.2015 11:00 4,4 C 77 % 1022,9 hPa 0,0 l/m 5,1 km/h N 0,7 C 4,4 C 12,1 km/h
14.03.2015 12:00 4,5 C 79 % 1022,8 hPa 0,0 l/m 5,7 km/h N 1,1 C 4,5 C 12,9 km/h
14.03.2015 13:00 5,1 C 75 % 1022,7 hPa 0,0 l/m 4,9 km/h N 1,1 C 5,1 C 12,1 km/h
14.03.2015 14:00 5,6 C 73 % 1022,9 hPa 0,0 l/m 4,8 km/h N 1,1 C 5,6 C 12,1 km/h
14.03.2015 15:00 5,9 C 71 % 1023,2 hPa 0,0 l/m 4,6 km/h N 1,1 C 5,9 C 10,5 km/h
14.03.2015 16:00 5,4 C 73 % 1023,7 hPa 0,0 l/m 4,7 km/h N 1,0 C 5,4 C 10,5 km/h
14.03.2015 17:00 5,3 C 74 % 1024,2 hPa 0,0 l/m 2,1 km/h N 1,0 C 5,3 C 6,8 km/h
14.03.2015 18:00 4,9 C 74 % 1024,8 hPa 0,0 l/m 0,6 km/h N 0,7 C 4,9 C 2,8 km/h
14.03.2015 19:00 4,4 C 78 % 1025,3 hPa 0,0 l/m 0,0 km/h N 0,9 C 4,4 C 0,4 km/h
14.03.2015 20:00 4,1 C 80 % 1025,7 hPa 0,0 l/m 0,1 km/h N 1,0 C 4,1 C 1,2 km/h
14.03.2015 21:00 4,1 C 82 % 1025,8 hPa 0,0 l/m 0,3 km/h N 1,2 C 4,1 C 4,4 km/h
14.03.2015 22:00 3,9 C 83 % 1026,1 hPa 0,0 l/m 0,1 km/h N 1,2 C 3,9 C 2,4 km/h
14.03.2015 23:00 3,9 C 83 % 1026,3 hPa 0,0 l/m 0,4 km/h N 1,3 C 3,9 C 3,6 km/h
15.03.2015 00:00 3,8 C 83 % 1026,4 hPa 0,0 l/m 0,1 km/h N 1,2 C 3,8 C 2,4 km/h
15.03.2015 01:00 3,6 C 84 % 1026,6 hPa 0,0 l/m 0,1 km/h N 1,2 C 3,6 C 3,6 km/h
15.03.2015 02:00 3,4 C 85 % 1026,3 hPa 0,0 l/m 0,1 km/h N 1,1 C 3,4 C 2,0 km/h
15.03.2015 03:00 3,3 C 85 % 1026,4 hPa 0,0 l/m 0,3 km/h N 1,0 C 3,3 C 4,0 km/h
15.03.2015 04:00 3,0 C 85 % 1027,0 hPa 0,0 l/m 0,6 km/h N 0,7 C 3,0 C 5,2 km/h
15.03.2015 05:00 2,5 C 85 % 1027,4 hPa 0,0 l/m 1,2 km/h N 0,2 C 2,5 C 7,3 km/h
15.03.2015 06:00 2,2 C 85 % 1028,3 hPa 0,0 l/m 0,3 km/h N -0,0 C 2,2 C 4,0 km/h
15.03.2015 07:00 2,5 C 85 % 1029,0 hPa 0,0 l/m 0,3 km/h N 0,2 C 2,5 C 3,2 km/h
15.03.2015 08:00 3,3 C 85 % 1029,5 hPa 0,0 l/m 0,5 km/h N 1,0 C 3,3 C 4,8 km/h
15.03.2015 09:00 4,0 C 85 % 1029,8 hPa 0,0 l/m 1,3 km/h N 1,7 C 4,0 C 6,4 km/h
15.03.2015 10:00 4,5 C 85 % 1030,1 hPa 0,0 l/m 2,0 km/h N 2,2 C 4,5 C 8,4 km/h
15.03.2015 11:00 5,3 C 85 % 1030,4 hPa 0,0 l/m 3,2 km/h N 2,9 C 5,3 C 12,5 km/h
15.03.2015 12:00 7,0 C 82 % 1030,2 hPa 0,0 l/m 7,0 km/h N 4,1 C 6,3 C 18,5 km/h
15.03.2015 13:00 7,8 C 76 % 1029,9 hPa 0,0 l/m 6,3 km/h N 3,9 C 7,3 C 21,3 km/h
15.03.2015 14:00 7,6 C 80 % 1029,9 hPa 0,0 l/m 3,9 km/h N 4,3 C 7,6 C 12,9 km/h
15.03.2015 15:00 8,2 C 76 % 1029,9 hPa 0,0 l/m 6,0 km/h N 4,2 C 8,0 C 20,1 km/h
15.03.2015 16:00 8,1 C 76 % 1029,9 hPa 0,0 l/m 4,7 km/h N 4,1 C 8,1 C 16,9 km/h
15.03.2015 17:00 7,7 C 78 % 1030,1 hPa 0,0 l/m 3,1 km/h N 4,1 C 7,7 C 10,5 km/h
15.03.2015 18:00 7,5 C 79 % 1030,4 hPa 0,0 l/m 3,8 km/h N 4,1 C 7,5 C 11,7 km/h
15.03.2015 19:00 7,3 C 80 % 1030,5 hPa 0,0 l/m 1,5 km/h N 4,0 C 7,3 C 6,8 km/h
15.03.2015 20:00 7,2 C 81 % 1030,4 hPa 0,0 l/m 1,1 km/h N 4,1 C 7,2 C 6,8 km/h
15.03.2015 21:00 6,9 C 81 % 1030,5 hPa 0,0 l/m 0,7 km/h N 3,9 C 6,9 C 6,0 km/h
15.03.2015 22:00 6,8 C 82 % 1030,6 hPa 0,0 l/m 0,5 km/h N 3,9 C 6,8 C 5,6 km/h
15.03.2015 23:00 6,5 C 83 % 1030,5 hPa 0,0 l/m 0,9 km/h N 3,8 C 6,5 C 6,8 km/h
Min-Datum _ 09.03.15 09.03.15 11.03.15 - 09.03.15 - 09.03.15 09.03.15 09.03.15
_ Min-Zeit 06:15 11:15 04:00 - 00:15 - 01:45 06:15 00:15
Minimum _ -2,9 C 34 % 1020,1 hPa - 0,0 km/h - -6,0 C -2,9 C 0,0 km/h
Max-Datum _ 10.03.15 10.03.15 15.03.15 11.03.15 12.03.15 - 15.03.15 10.03.15 12.03.15
_ Max-Zeit 14:45 07:15 22:30 11:30 09:45 - 14:30 16:30 16:45
Maximum _ 14,1 C 92 % 1030,7 hPa 1,3 l/m 17,7 km/h
N
- 4,7 C 13,8 C 38,6 km/h
N
Durchschnitt _ 5,0 C 72 % 1025,0 hPa #6,0 l/m 5,4 km/h N -0,0 C 3,8 C 14,0 km/h